createdAt,value
2019-02-20T00:02:18.271Z,9.60
2019-02-20T00:04:48.178Z,9.30
2019-02-20T00:07:17.913Z,9.13
2019-02-20T00:09:47.804Z,9.25
2019-02-20T00:12:17.696Z,9.13
2019-02-20T00:14:47.424Z,9.10
2019-02-20T00:17:17.254Z,9.08
2019-02-20T00:19:47.166Z,8.78
2019-02-20T00:22:17.080Z,9.18
2019-02-20T00:24:47.052Z,8.78
2019-02-20T00:27:16.992Z,8.20
2019-02-20T00:29:46.755Z,8.93
2019-02-20T00:32:16.560Z,8.53
2019-02-20T00:34:46.359Z,8.48
2019-02-20T00:37:16.252Z,8.95
2019-02-20T00:39:45.975Z,8.83
2019-02-20T00:42:15.987Z,9.35
2019-02-20T00:45:04.737Z,8.55
2019-02-20T00:47:58.207Z,8.38
2019-02-20T00:50:29.855Z,9.18
2019-02-20T00:53:27.628Z,9.18
2019-02-20T00:55:57.455Z,8.90
2019-02-20T00:58:27.298Z,7.80
2019-02-20T01:00:57.374Z,8.30
2019-02-20T01:03:27.126Z,9.00
2019-02-20T01:05:56.902Z,8.80
2019-02-20T01:08:26.666Z,8.88
2019-02-20T01:10:56.542Z,8.60
2019-02-20T01:13:26.481Z,8.48
2019-02-20T01:15:56.299Z,7.60
2019-02-20T01:18:26.181Z,8.43
2019-02-20T01:20:56.027Z,8.30
2019-02-20T01:23:26.148Z,8.55
2019-02-20T01:25:55.952Z,8.53
2019-02-20T01:28:25.695Z,7.95
2019-02-20T01:30:55.375Z,8.33
2019-02-20T01:33:25.090Z,8.73
2019-02-20T01:35:54.726Z,8.53
2019-02-20T01:38:24.311Z,8.23
2019-02-20T01:40:53.927Z,8.38
2019-02-20T01:43:23.692Z,8.53
2019-02-20T01:45:53.350Z,9.08
2019-02-20T01:48:23.042Z,9.73
2019-02-20T01:50:52.824Z,8.53
2019-02-20T01:53:22.571Z,9.25
2019-02-20T01:55:52.282Z,9.60
2019-02-20T01:58:22.021Z,8.88
2019-02-20T02:00:51.824Z,9.20
2019-02-20T02:03:21.439Z,9.65
2019-02-20T02:05:51.238Z,9.50
2019-02-20T02:08:20.956Z,8.73
2019-02-20T02:10:50.690Z,9.50
2019-02-20T02:13:20.389Z,8.83
2019-02-20T02:15:50.193Z,8.53
2019-02-20T02:18:19.803Z,8.95
2019-02-20T02:20:49.603Z,8.98
2019-02-20T02:23:20.063Z,9.13
2019-02-20T02:25:49.862Z,9.28
2019-02-20T02:28:19.548Z,8.45
2019-02-20T02:30:49.221Z,8.88
2019-02-20T02:33:19.169Z,8.90
2019-02-20T02:35:48.970Z,9.25
2019-02-20T02:38:18.588Z,8.83
2019-02-20T02:40:48.309Z,8.35
2019-02-20T02:43:18.020Z,8.83
2019-02-20T02:45:47.642Z,8.78
2019-02-20T02:48:17.261Z,8.65
2019-02-20T02:50:47.041Z,9.03
2019-02-20T02:53:16.807Z,8.23
2019-02-20T02:55:46.472Z,8.63
2019-02-20T02:58:16.136Z,8.75
2019-02-20T03:00:45.781Z,8.43
2019-02-20T03:03:15.505Z,8.23
2019-02-20T03:05:45.265Z,8.35
2019-02-20T03:08:15.018Z,8.48
2019-02-20T03:10:44.731Z,8.20
2019-02-20T03:13:14.448Z,8.70
2019-02-20T03:15:44.062Z,8.75
2019-02-20T03:18:13.861Z,9.40
2019-02-20T03:20:43.479Z,9.10
2019-02-20T03:23:13.189Z,9.25
2019-02-20T03:25:42.836Z,9.50
2019-02-20T03:28:12.405Z,8.78
2019-02-20T03:30:42.109Z,9.30
2019-02-20T03:33:11.852Z,8.98
2019-02-20T03:35:41.530Z,9.20
2019-02-20T03:38:11.217Z,9.05
2019-02-20T03:40:40.950Z,8.48
2019-02-20T03:43:10.635Z,9.05
2019-02-20T03:45:40.389Z,8.88
2019-02-20T03:48:10.015Z,8.85
2019-02-20T03:50:39.699Z,9.08
2019-02-20T03:53:09.330Z,8.70
2019-02-20T03:55:39.121Z,8.38
2019-02-20T03:58:08.866Z,8.43
2019-02-20T04:00:38.538Z,8.33
2019-02-20T04:03:08.265Z,8.60
2019-02-20T04:05:37.884Z,8.85
2019-02-20T04:08:07.782Z,8.53
2019-02-20T04:10:37.396Z,8.18
2019-02-20T04:13:07.304Z,9.03
2019-02-20T04:15:36.939Z,8.40
2019-02-20T04:18:06.636Z,8.65
2019-02-20T04:20:36.262Z,8.20
2019-02-20T04:23:06.087Z,8.38
2019-02-20T04:25:35.564Z,8.20
2019-02-20T04:28:05.271Z,8.83
2019-02-20T04:30:34.969Z,7.95
2019-02-20T04:33:04.727Z,8.10
2019-02-20T04:35:34.386Z,8.43
2019-02-20T04:38:04.234Z,8.20
2019-02-20T04:40:34.084Z,8.18
2019-02-20T04:43:03.935Z,7.85
2019-02-20T04:45:33.646Z,8.50
2019-02-20T04:48:03.372Z,8.28
2019-02-20T04:50:32.964Z,8.43
2019-02-20T04:53:02.598Z,8.48
2019-02-20T04:55:32.278Z,8.43
2019-02-20T04:58:35.996Z,7.70
2019-02-20T05:01:05.695Z,7.85
2019-02-20T05:03:35.365Z,10.03
2019-02-20T05:06:05.146Z,9.58
2019-02-20T05:08:34.963Z,9.23
2019-02-20T05:11:04.776Z,10.40
2019-02-20T05:13:34.444Z,9.83
2019-02-20T05:16:03.966Z,10.08
2019-02-20T05:18:33.726Z,11.03
2019-02-20T05:21:03.397Z,10.50
2019-02-20T05:23:33.227Z,10.20
2019-02-20T05:26:03.666Z,9.75
2019-02-20T05:28:33.664Z,11.25
2019-02-20T05:31:04.104Z,11.00
2019-02-20T05:33:33.781Z,10.60
2019-02-20T05:36:03.430Z,11.25
2019-02-20T05:38:33.108Z,16.35
2019-02-20T05:41:02.804Z,16.93
2019-02-20T05:43:32.531Z,15.72
2019-02-20T05:46:02.239Z,15.13
2019-02-20T05:48:31.959Z,14.40
2019-02-20T05:51:01.659Z,13.48
2019-02-20T05:53:31.405Z,13.20
2019-02-20T05:56:01.117Z,12.37
2019-02-20T05:58:30.720Z,12.60
2019-02-20T06:01:00.342Z,12.30
2019-02-20T06:03:29.957Z,13.03
2019-02-20T06:05:59.630Z,11.65
2019-02-20T06:08:29.339Z,12.18
2019-02-20T06:10:58.951Z,12.23
2019-02-20T06:13:28.757Z,12.63
2019-02-20T06:15:58.675Z,12.73
2019-02-20T06:18:28.521Z,11.30
2019-02-20T06:20:58.108Z,12.28
2019-02-20T06:23:27.923Z,11.35
2019-02-20T06:25:57.629Z,11.55
2019-02-20T06:28:27.363Z,11.68
2019-02-20T06:30:57.013Z,11.57
2019-02-20T06:33:26.675Z,11.08
2019-02-20T06:35:56.364Z,12.45
2019-02-20T06:38:26.102Z,10.80
2019-02-20T06:40:55.797Z,11.12
2019-02-20T06:43:25.347Z,11.78
2019-02-20T06:45:55.132Z,12.18
2019-02-20T06:48:24.770Z,11.75
2019-02-20T06:50:54.617Z,11.73
2019-02-20T06:53:24.394Z,11.48
2019-02-20T06:55:54.239Z,11.48
2019-02-20T06:58:23.993Z,11.45
2019-02-20T07:00:53.670Z,12.50
2019-02-20T07:03:23.305Z,12.07
2019-02-20T07:06:30.807Z,10.68
2019-02-20T07:09:56.296Z,11.00
2019-02-20T07:12:50.202Z,11.30
2019-02-20T07:15:48.354Z,11.50
2019-02-20T07:18:46.128Z,11.50
2019-02-20T07:21:51.874Z,11.75
2019-02-20T07:24:49.340Z,12.43
2019-02-20T07:28:01.212Z,12.45
2019-02-20T07:30:31.052Z,12.90
2019-02-20T07:33:00.780Z,11.50
2019-02-20T07:35:30.479Z,11.43
2019-02-20T07:38:00.212Z,11.33
2019-02-20T07:40:29.925Z,12.60
2019-02-20T07:43:00.267Z,11.85
2019-02-20T07:45:29.978Z,11.78
2019-02-20T07:47:59.744Z,12.15
2019-02-20T07:50:29.496Z,11.95
2019-02-20T07:52:59.100Z,12.70
2019-02-20T07:55:29.088Z,11.93
2019-02-20T07:57:59.747Z,12.05
2019-02-20T08:00:29.438Z,12.60
2019-02-20T08:02:59.184Z,12.07
2019-02-20T08:05:28.945Z,12.20
2019-02-20T08:07:58.407Z,14.35
2019-02-20T08:10:28.008Z,13.85
2019-02-20T08:12:57.670Z,13.88
2019-02-20T08:15:27.309Z,12.53
2019-02-20T08:17:56.999Z,13.32
2019-02-20T08:20:26.725Z,11.38
2019-02-20T08:22:56.417Z,12.98
2019-02-20T08:25:26.165Z,13.22
2019-02-20T08:27:55.750Z,13.40
2019-02-20T08:30:25.518Z,13.28
2019-02-20T08:32:55.180Z,13.28
2019-02-20T08:35:25.820Z,13.83
2019-02-20T08:37:55.597Z,14.70
2019-02-20T08:40:25.309Z,13.83
2019-02-20T08:42:55.119Z,13.13
2019-02-20T08:45:24.799Z,12.85
2019-02-20T08:47:54.451Z,13.15
2019-02-20T08:50:24.039Z,13.53
2019-02-20T08:52:53.817Z,12.95
2019-02-20T08:55:31.547Z,12.53
2019-02-20T08:57:54.946Z,12.55
2019-02-20T09:00:24.663Z,12.65
2019-02-20T09:02:54.349Z,12.98
2019-02-20T09:05:23.980Z,13.60
2019-02-20T09:07:53.661Z,12.90
2019-02-20T09:10:23.487Z,12.73
2019-02-20T09:12:53.199Z,12.55
2019-02-20T09:15:22.826Z,12.63
2019-02-20T09:17:52.574Z,12.37
2019-02-20T09:20:22.222Z,12.23
2019-02-20T09:22:51.965Z,12.70
2019-02-20T09:25:21.703Z,12.10
2019-02-20T09:27:51.341Z,12.35
2019-02-20T09:30:28.351Z,12.93
2019-02-20T09:32:52.620Z,12.80
2019-02-20T09:35:22.333Z,12.35
2019-02-20T09:37:51.966Z,13.45
2019-02-20T09:40:21.691Z,13.43
2019-02-20T09:42:51.375Z,13.03
2019-02-20T09:45:21.088Z,12.43
2019-02-20T09:47:50.795Z,12.23
2019-02-20T09:50:20.496Z,12.75
2019-02-20T09:52:52.690Z,12.10
2019-02-20T09:55:21.752Z,14.00
2019-02-20T09:57:51.395Z,14.35
2019-02-20T10:00:21.467Z,13.88
2019-02-20T10:02:52.418Z,13.98
2019-02-20T10:05:22.192Z,13.35
2019-02-20T10:07:51.944Z,14.40
2019-02-20T10:10:21.677Z,15.45
2019-02-20T10:12:51.377Z,16.15
2019-02-20T10:15:21.013Z,16.20
2019-02-20T10:17:49.507Z,14.70
2019-02-20T10:20:19.191Z,14.98
2019-02-20T10:22:48.879Z,14.05
2019-02-20T10:25:18.567Z,14.83
2019-02-20T10:27:48.399Z,13.35
2019-02-20T10:30:16.920Z,13.85
2019-02-20T10:32:46.531Z,13.35
2019-02-20T10:35:16.302Z,12.98
2019-02-20T10:37:46.035Z,13.83
2019-02-20T10:40:15.727Z,12.18
2019-02-20T10:42:45.449Z,11.70
2019-02-20T10:45:15.164Z,13.28
2019-02-20T10:47:44.866Z,11.28
2019-02-20T10:50:14.906Z,11.38
2019-02-20T10:52:44.638Z,12.35
2019-02-20T10:55:14.227Z,11.33
2019-02-20T10:57:43.933Z,12.40
2019-02-20T11:00:24.231Z,12.73
2019-02-20T11:02:53.186Z,11.20
2019-02-20T11:05:23.003Z,14.23
2019-02-20T11:07:52.615Z,15.50
2019-02-20T11:10:24.017Z,14.20
2019-02-20T11:12:53.973Z,12.65
2019-02-20T11:15:23.896Z,18.15
2019-02-20T11:17:53.497Z,17.35
2019-02-20T11:20:23.197Z,14.25
2019-02-20T11:22:52.934Z,14.20
2019-02-20T11:25:22.640Z,13.18
2019-02-20T11:27:52.250Z,13.78
2019-02-20T11:30:22.087Z,13.13
2019-02-20T11:32:51.777Z,13.18
2019-02-20T11:35:21.483Z,12.40
2019-02-20T11:37:51.207Z,12.50
2019-02-20T11:40:20.794Z,12.68
2019-02-20T11:42:50.498Z,12.60
2019-02-20T11:45:20.128Z,11.97
2019-02-20T11:47:49.813Z,11.40
2019-02-20T11:50:19.431Z,11.57
2019-02-20T11:52:49.139Z,11.03
2019-02-20T11:55:18.831Z,11.00
2019-02-20T11:57:48.471Z,11.03
2019-02-20T12:00:18.259Z,11.18
2019-02-20T12:02:47.935Z,10.80
2019-02-20T12:05:17.604Z,10.15
2019-02-20T12:07:47.222Z,10.32
2019-02-20T12:10:18.133Z,10.38
2019-02-20T12:12:47.947Z,10.15
2019-02-20T12:15:17.568Z,10.35
2019-02-20T12:17:47.371Z,10.55
2019-02-20T12:20:17.000Z,10.18
2019-02-20T12:22:46.848Z,11.25
2019-02-20T12:25:16.632Z,10.15
2019-02-20T12:27:46.350Z,10.23
2019-02-20T12:30:15.924Z,9.90
2019-02-20T12:32:45.624Z,9.68
2019-02-20T12:35:15.349Z,9.03
2019-02-20T12:37:44.973Z,10.00
2019-02-20T12:40:14.656Z,9.85
2019-02-20T12:42:44.287Z,10.08
2019-02-20T12:45:14.075Z,9.60
2019-02-20T12:47:44.981Z,10.05
2019-02-20T12:50:14.662Z,9.25
2019-02-20T12:52:44.456Z,10.03
2019-02-20T12:55:15.539Z,10.10
2019-02-20T12:57:45.491Z,9.95
2019-02-20T13:00:17.039Z,9.60
2019-02-20T13:02:46.871Z,9.30
2019-02-20T13:05:16.874Z,8.78
2019-02-20T13:07:47.125Z,8.83
2019-02-20T13:10:16.863Z,9.45
2019-02-20T13:12:46.891Z,9.60
2019-02-20T13:15:16.644Z,8.93
2019-02-20T13:17:46.383Z,9.18
2019-02-20T13:20:16.093Z,8.38
2019-02-20T13:22:45.801Z,8.88
2019-02-20T13:25:15.595Z,8.45
2019-02-20T13:27:45.232Z,9.10
2019-02-20T13:30:15.020Z,8.53
2019-02-20T13:32:44.770Z,8.90
2019-02-20T13:35:14.544Z,8.53
2019-02-20T13:37:44.287Z,8.65
2019-02-20T13:40:13.979Z,8.60
2019-02-20T13:42:44.601Z,8.23
2019-02-20T13:45:14.348Z,8.30
2019-02-20T13:47:44.050Z,9.00
2019-02-20T13:50:14.306Z,7.95
2019-02-20T13:52:52.008Z,8.60
2019-02-20T13:55:16.069Z,9.48
2019-02-20T13:57:45.783Z,8.98
2019-02-20T14:00:15.435Z,8.83
2019-02-20T14:02:45.102Z,8.75
2019-02-20T14:05:14.957Z,9.23
2019-02-20T14:07:45.724Z,9.70
2019-02-20T14:10:15.320Z,8.88
2019-02-20T14:12:45.156Z,8.85
2019-02-20T14:15:17.539Z,9.23
2019-02-20T14:17:47.441Z,9.28
2019-02-20T14:20:17.109Z,9.23
2019-02-20T14:22:46.717Z,9.53
2019-02-20T14:25:16.436Z,8.83
2019-02-20T14:27:46.062Z,9.83
2019-02-20T14:30:15.753Z,9.50
2019-02-20T14:32:45.435Z,9.75
2019-02-20T14:35:15.396Z,9.40
2019-02-20T14:37:45.033Z,9.70
2019-02-20T14:40:14.731Z,9.18
2019-02-20T14:42:44.420Z,9.58
2019-02-20T14:45:14.123Z,9.65
2019-02-20T14:47:43.836Z,8.78
2019-02-20T14:50:13.465Z,9.20
2019-02-20T14:52:43.402Z,9.78
2019-02-20T14:55:13.105Z,8.50
2019-02-20T14:57:42.780Z,8.58
2019-02-20T15:00:13.044Z,8.55
2019-02-20T15:02:42.780Z,8.53
2019-02-20T15:05:12.542Z,8.40
2019-02-20T15:07:42.234Z,9.10
2019-02-20T15:10:11.871Z,9.23
2019-02-20T15:12:41.565Z,8.00
2019-02-20T15:15:11.201Z,8.05
2019-02-20T15:17:40.986Z,8.18
2019-02-20T15:20:11.518Z,8.48
2019-02-20T15:22:41.153Z,8.00
2019-02-20T15:25:10.922Z,7.83
2019-02-20T15:27:40.676Z,7.92
2019-02-20T15:30:12.529Z,8.40
2019-02-20T15:32:42.727Z,7.95
2019-02-20T15:35:12.359Z,8.00
2019-02-20T15:37:42.071Z,8.45
2019-02-20T15:40:11.755Z,8.38
2019-02-20T15:42:41.515Z,8.50
2019-02-20T15:45:11.280Z,7.70
2019-02-20T15:47:40.992Z,8.50
2019-02-20T15:50:11.593Z,7.67
2019-02-20T15:52:41.371Z,7.95
2019-02-20T15:55:11.521Z,7.85
2019-02-20T15:57:41.315Z,7.78
2019-02-20T16:00:12.577Z,7.75
2019-02-20T16:02:42.406Z,7.30
2019-02-20T16:05:12.561Z,7.53
2019-02-20T16:07:42.260Z,8.68
2019-02-20T16:10:11.892Z,7.47
2019-02-20T16:12:43.053Z,8.78
2019-02-20T16:15:14.595Z,8.15
2019-02-20T16:17:44.945Z,7.97
2019-02-20T16:20:15.029Z,8.05
2019-02-20T16:22:44.790Z,8.45
2019-02-20T16:25:14.846Z,8.15
2019-02-20T16:27:47.317Z,7.72
2019-02-20T16:30:16.019Z,7.97
2019-02-20T16:32:45.654Z,8.20
2019-02-20T16:35:15.635Z,7.75
2019-02-20T16:37:45.276Z,8.53
2019-02-20T16:40:14.853Z,7.45
2019-02-20T16:42:44.522Z,8.50
2019-02-20T16:45:24.360Z,8.25
2019-02-20T16:47:54.355Z,7.85
2019-02-20T16:50:24.071Z,8.53
2019-02-20T16:52:53.804Z,8.10
2019-02-20T16:55:23.503Z,8.20
2019-02-20T16:57:56.731Z,7.70
2019-02-20T17:00:24.613Z,8.25
2019-02-20T17:02:54.750Z,7.75
2019-02-20T17:05:24.589Z,8.18
2019-02-20T17:07:54.476Z,8.13
2019-02-20T17:10:24.210Z,7.53
2019-02-20T17:12:54.012Z,8.45
2019-02-20T17:15:23.597Z,7.92
2019-02-20T17:17:53.516Z,7.62
2019-02-20T17:20:23.263Z,7.90
2019-02-20T17:22:52.990Z,7.80
2019-02-20T17:25:22.648Z,7.80
2019-02-20T17:27:52.368Z,8.03
2019-02-20T17:30:21.995Z,8.70
2019-02-20T17:32:51.895Z,7.58
2019-02-20T17:35:21.577Z,7.33
2019-02-20T17:37:51.307Z,7.75
2019-02-20T17:40:21.005Z,8.38
2019-02-20T17:42:50.657Z,7.78
2019-02-20T17:45:20.576Z,7.20
2019-02-20T17:47:50.160Z,8.40
2019-02-20T17:50:19.791Z,7.37
2019-02-20T17:52:49.613Z,7.50
2019-02-20T17:55:19.392Z,6.95
2019-02-20T17:57:49.140Z,8.03
2019-02-20T18:00:20.033Z,7.70
2019-02-20T18:02:49.761Z,7.42
2019-02-20T18:05:19.381Z,7.78
2019-02-20T18:07:51.850Z,7.62
2019-02-20T18:10:20.330Z,7.62
2019-02-20T18:12:50.031Z,7.20
2019-02-20T18:15:19.668Z,7.78
2019-02-20T18:17:49.411Z,7.92
2019-02-20T18:20:19.173Z,8.00
2019-02-20T18:22:49.073Z,8.18
2019-02-20T18:25:18.762Z,8.00
2019-02-20T18:27:48.603Z,7.95
2019-02-20T18:30:18.089Z,8.20
2019-02-20T18:32:47.875Z,8.18
2019-02-20T18:35:17.653Z,8.38
2019-02-20T18:37:47.275Z,9.03
2019-02-20T18:40:17.039Z,8.90
2019-02-20T18:42:46.868Z,8.48
2019-02-20T18:45:16.587Z,9.05
2019-02-20T18:47:46.258Z,8.78
2019-02-20T18:50:16.053Z,8.45
2019-02-20T18:52:45.960Z,8.83
2019-02-20T18:55:15.640Z,8.10
2019-02-20T18:57:45.381Z,8.53
2019-02-20T19:00:15.775Z,8.25
2019-02-20T19:02:45.501Z,8.98
2019-02-20T19:05:15.298Z,8.70
2019-02-20T19:07:44.942Z,8.20
2019-02-20T19:10:18.310Z,7.95
2019-02-20T19:13:29.756Z,8.68
2019-02-20T19:16:14.666Z,8.28
2019-02-20T19:19:08.446Z,8.70
2019-02-20T19:22:27.606Z,9.18
2019-02-20T19:25:42.694Z,8.95
2019-02-20T19:28:56.281Z,8.83
2019-02-20T19:32:17.878Z,9.28
2019-02-20T19:35:20.288Z,8.68
2019-02-20T19:38:22.897Z,8.50
2019-02-20T19:41:54.961Z,9.25
2019-02-20T19:44:56.832Z,8.95
2019-02-20T19:48:15.634Z,7.55
2019-02-20T19:51:21.927Z,8.40
2019-02-20T19:54:18.311Z,7.78
2019-02-20T19:57:22.784Z,8.85
2019-02-20T20:00:14.985Z,8.18
2019-02-20T20:03:08.373Z,7.55
2019-02-20T20:06:18.709Z,8.25
2019-02-20T20:09:10.425Z,7.97
2019-02-20T20:12:14.664Z,8.60
2019-02-20T20:15:24.002Z,7.78
2019-02-20T20:18:37.403Z,8.08
2019-02-20T20:22:05.741Z,8.38
2019-02-20T20:24:57.135Z,7.75
2019-02-20T20:28:02.421Z,7.80
2019-02-20T20:31:20.966Z,8.05
2019-02-20T20:34:33.162Z,7.70
2019-02-20T20:37:15.607Z,7.75
2019-02-20T20:40:38.102Z,8.20
2019-02-20T20:43:57.787Z,8.15
2019-02-20T20:47:20.373Z,7.95
2019-02-20T20:50:15.434Z,7.72
2019-02-20T20:53:28.041Z,7.55
2019-02-20T20:56:29.821Z,7.60
2019-02-20T20:59:46.126Z,8.20
2019-02-20T21:02:29.159Z,7.83
2019-02-20T21:05:50.747Z,7.58
2019-02-20T21:08:54.072Z,8.30
2019-02-20T21:11:55.102Z,7.72
2019-02-20T21:15:11.629Z,7.65
2019-02-20T21:18:15.358Z,7.58
2019-02-20T21:21:14.324Z,7.47
2019-02-20T21:24:15.506Z,7.80
2019-02-20T21:27:12.219Z,8.10
2019-02-20T21:30:25.568Z,7.90
2019-02-20T21:33:35.940Z,7.15
2019-02-20T21:36:12.232Z,8.00
2019-02-20T21:39:08.013Z,7.92
2019-02-20T21:41:58.804Z,7.58
2019-02-20T21:44:57.233Z,7.35
2019-02-20T21:47:45.856Z,7.55
2019-02-20T21:50:29.496Z,7.47
2019-02-20T21:53:25.002Z,7.47
2019-02-20T21:56:28.103Z,7.17
2019-02-20T21:59:50.448Z,7.72
2019-02-20T22:02:53.067Z,7.42
2019-02-20T22:06:08.216Z,7.58
2019-02-20T22:09:04.504Z,7.40
2019-02-20T22:11:55.376Z,7.30
2019-02-20T22:14:52.716Z,7.35
2019-02-20T22:17:48.119Z,7.42
2019-02-20T22:20:53.169Z,7.35
2019-02-20T22:23:58.204Z,8.03
2019-02-20T22:27:06.718Z,7.87
2019-02-20T22:30:08.580Z,6.67
2019-02-20T22:33:03.996Z,6.95
2019-02-20T22:36:10.374Z,6.83
2019-02-20T22:39:13.133Z,7.20
2019-02-20T22:42:38.680Z,7.12
2019-02-20T22:45:33.665Z,6.78
2019-02-20T22:48:31.773Z,7.50
2019-02-20T22:51:54.007Z,6.90
2019-02-20T22:55:11.648Z,7.03
2019-02-20T22:58:19.436Z,6.87
2019-02-20T23:01:35.946Z,7.30
2019-02-20T23:04:20.305Z,6.42
2019-02-20T23:07:04.199Z,6.83
2019-02-20T23:09:52.821Z,7.35
2019-02-20T23:13:05.869Z,6.85
2019-02-20T23:15:35.537Z,6.22
2019-02-20T23:18:05.238Z,7.20
2019-02-20T23:20:34.959Z,6.20
2019-02-20T23:23:04.592Z,6.80
2019-02-20T23:25:34.279Z,7.40
2019-02-20T23:28:03.921Z,6.90
2019-02-20T23:30:33.617Z,6.28
2019-02-20T23:33:03.233Z,6.28
2019-02-20T23:35:32.955Z,6.03
2019-02-20T23:38:02.618Z,6.42
2019-02-20T23:40:32.342Z,6.22
2019-02-20T23:43:02.062Z,6.58
2019-02-20T23:45:31.680Z,6.72
2019-02-20T23:48:01.365Z,6.25
2019-02-20T23:50:31.102Z,6.47
2019-02-20T23:53:00.796Z,6.70
2019-02-20T23:55:30.495Z,6.15
2019-02-20T23:58:00.213Z,6.15
